sensor_id;sensor_type;location;lat;lon;timestamp;P1;durP1;ratioP1;P2;durP2;ratioP2
74100;SDS011;62462;52.530;21.682;2023-09-19T18:59:43;11.70;;;9.77;;
74100;SDS011;62462;52.530;21.682;2023-09-19T19:02:09;13.00;;;9.77;;
74100;SDS011;62462;52.530;21.682;2023-09-19T19:04:35;12.63;;;10.68;;
74100;SDS011;62462;52.530;21.682;2023-09-19T19:07:05;12.00;;;9.27;;
74100;SDS011;62462;52.530;21.682;2023-09-19T19:09:37;12.07;;;8.55;;
74100;SDS011;62462;52.530;21.682;2023-09-19T19:12:05;14.13;;;9.60;;
74100;SDS011;62462;52.530;21.682;2023-09-19T19:14:31;13.23;;;9.02;;
74100;SDS011;62462;52.530;21.682;2023-09-19T19:16:57;12.18;;;9.93;;
74100;SDS011;62462;52.530;21.682;2023-09-19T19:19:24;11.13;;;8.57;;
74100;SDS011;62462;52.530;21.682;2023-09-19T19:21:50;12.55;;;8.52;;
74100;SDS011;62462;52.530;21.682;2023-09-19T19:24:16;9.00;;;7.75;;
74100;SDS011;62462;52.530;21.682;2023-09-19T19:26:45;10.65;;;8.32;;
74100;SDS011;62462;52.530;21.682;2023-09-19T19:29:11;13.60;;;9.27;;
74100;SDS011;62462;52.530;21.682;2023-09-19T19:31:41;9.95;;;8.05;;
74100;SDS011;62462;52.530;21.682;2023-09-19T19:34:06;9.13;;;7.22;;
74100;SDS011;62462;52.530;21.682;2023-09-19T19:36:33;9.27;;;6.50;;
74100;SDS011;62462;52.530;21.682;2023-09-19T19:38:59;8.75;;;6.82;;
74100;SDS011;62462;52.530;21.682;2023-09-19T19:41:25;7.75;;;6.65;;
74100;SDS011;62462;52.530;21.682;2023-09-19T19:43:52;8.02;;;6.43;;
74100;SDS011;62462;52.530;21.682;2023-09-19T19:46:17;7.78;;;6.40;;
74100;SDS011;62462;52.530;21.682;2023-09-19T19:48:47;9.13;;;7.15;;
74100;SDS011;62462;52.530;21.682;2023-09-19T19:51:13;9.77;;;6.93;;
74100;SDS011;62462;52.530;21.682;2023-09-19T19:53:39;9.27;;;6.32;;
74100;SDS011;62462;52.530;21.682;2023-09-19T19:56:05;9.18;;;6.70;;
74100;SDS011;62462;52.530;21.682;2023-09-19T19:58:31;9.27;;;7.22;;
74100;SDS011;62462;52.530;21.682;2023-09-19T20:00:57;10.65;;;6.90;;
74100;SDS011;62462;52.530;21.682;2023-09-19T20:03:25;8.75;;;6.40;;
74100;SDS011;62462;52.530;21.682;2023-09-19T20:05:51;8.77;;;6.90;;
74100;SDS011;62462;52.530;21.682;2023-09-19T20:08:17;9.07;;;7.30;;
74100;SDS011;62462;52.530;21.682;2023-09-19T20:10:43;8.90;;;6.65;;
74100;SDS011;62462;52.530;21.682;2023-09-19T20:13:09;10.00;;;6.40;;
74100;SDS011;62462;52.530;21.682;2023-09-19T20:15:39;11.10;;;6.93;;
74100;SDS011;62462;52.530;21.682;2023-09-19T20:18:06;7.80;;;6.00;;
74100;SDS011;62462;52.530;21.682;2023-09-19T20:20:41;7.82;;;5.97;;
74100;SDS011;62462;52.530;21.682;2023-09-19T20:23:06;8.00;;;6.05;;
74100;SDS011;62462;52.530;21.682;2023-09-19T20:25:35;6.90;;;5.13;;
74100;SDS011;62462;52.530;21.682;2023-09-19T20:28:05;8.32;;;5.45;;
74100;SDS011;62462;52.530;21.682;2023-09-19T20:30:32;5.20;;;4.70;;
74100;SDS011;62462;52.530;21.682;2023-09-19T20:32:58;5.68;;;4.70;;
74100;SDS011;62462;52.530;21.682;2023-09-19T20:35:27;6.05;;;4.10;;
74100;SDS011;62462;52.530;21.682;2023-09-19T20:37:53;5.82;;;4.57;;
74100;SDS011;62462;52.530;21.682;2023-09-19T20:40:25;5.45;;;4.10;;
74100;SDS011;62462;52.530;21.682;2023-09-19T20:42:51;8.02;;;4.70;;
74100;SDS011;62462;52.530;21.682;2023-09-19T20:45:18;5.53;;;4.32;;
74100;SDS011;62462;52.530;21.682;2023-09-19T20:47:44;5.22;;;4.30;;
74100;SDS011;62462;52.530;21.682;2023-09-19T20:50:10;5.38;;;3.88;;
74100;SDS011;62462;52.530;21.682;2023-09-19T20:52:36;5.22;;;4.10;;
74100;SDS011;62462;52.530;21.682;2023-09-19T20:55:03;5.47;;;3.10;;
74100;SDS011;62462;52.530;21.682;2023-09-19T20:57:31;4.75;;;3.80;;
74100;SDS011;62462;52.530;21.682;2023-09-19T20:59:57;3.63;;;3.33;;
74100;SDS011;62462;52.530;21.682;2023-09-19T21:02:22;3.83;;;3.30;;
74100;SDS011;62462;52.530;21.682;2023-09-19T21:04:48;3.95;;;2.65;;
74100;SDS011;62462;52.530;21.682;2023-09-19T21:07:15;3.20;;;2.70;;
74100;SDS011;62462;52.530;21.682;2023-09-19T21:09:41;4.18;;;3.03;;
74100;SDS011;62462;52.530;21.682;2023-09-19T21:12:09;4.50;;;3.40;;
74100;SDS011;62462;52.530;21.682;2023-09-19T21:14:35;7.00;;;3.67;;
74100;SDS011;62462;52.530;21.682;2023-09-19T21:17:01;3.53;;;2.50;;
74100;SDS011;62462;52.530;21.682;2023-09-19T21:19:28;3.83;;;2.10;;
74100;SDS011;62462;52.530;21.682;2023-09-19T21:21:54;2.53;;;2.33;;
74100;SDS011;62462;52.530;21.682;2023-09-19T21:24:22;3.33;;;2.42;;
74100;SDS011;62462;52.530;21.682;2023-09-19T21:26:51;4.90;;;2.40;;
74100;SDS011;62462;52.530;21.682;2023-09-19T21:29:17;3.88;;;2.53;;
74100;SDS011;62462;52.530;21.682;2023-09-19T21:31:43;6.35;;;2.60;;
74100;SDS011;62462;52.530;21.682;2023-09-19T21:34:11;3.03;;;2.72;;
74100;SDS011;62462;52.530;21.682;2023-09-19T21:36:37;2.60;;;2.40;;
74100;SDS011;62462;52.530;21.682;2023-09-19T21:39:03;2.03;;;1.90;;
74100;SDS011;62462;52.530;21.682;2023-09-19T21:41:29;2.20;;;2.00;;
74100;SDS011;62462;52.530;21.682;2023-09-19T21:43:56;2.50;;;1.75;;
74100;SDS011;62462;52.530;21.682;2023-09-19T21:46:22;2.00;;;1.80;;
74100;SDS011;62462;52.530;21.682;2023-09-19T21:48:48;1.60;;;1.50;;
74100;SDS011;62462;52.530;21.682;2023-09-19T21:51:19;1.88;;;1.60;;
74100;SDS011;62462;52.530;21.682;2023-09-19T21:53:47;2.03;;;1.60;;
74100;SDS011;62462;52.530;21.682;2023-09-19T21:56:13;2.53;;;1.60;;
74100;SDS011;62462;52.530;21.682;2023-09-19T21:58:40;2.00;;;1.80;;
74100;SDS011;62462;52.530;21.682;2023-09-19T22:01:06;2.80;;;1.60;;
74100;SDS011;62462;52.530;21.682;2023-09-19T22:03:35;1.50;;;1.40;;
74100;SDS011;62462;52.530;21.682;2023-09-19T22:06:08;1.53;;;1.43;;
74100;SDS011;62462;52.530;21.682;2023-09-19T22:08:38;3.10;;;2.83;;
74100;SDS011;62462;52.530;21.682;2023-09-19T22:11:04;2.30;;;2.10;;
74100;SDS011;62462;52.530;21.682;2023-09-19T22:13:36;1.60;;;1.50;;
74100;SDS011;62462;52.530;21.682;2023-09-19T22:16:07;3.38;;;2.50;;
74100;SDS011;62462;52.530;21.682;2023-09-19T22:18:33;2.78;;;2.42;;
74100;SDS011;62462;52.530;21.682;2023-09-19T22:20:59;2.88;;;2.22;;
74100;SDS011;62462;52.530;21.682;2023-09-19T22:23:32;3.25;;;2.63;;
74100;SDS011;62462;52.530;21.682;2023-09-19T22:26:05;2.33;;;2.13;;
74100;SDS011;62462;52.530;21.682;2023-09-19T22:28:32;3.58;;;2.80;;
74100;SDS011;62462;52.530;21.682;2023-09-19T22:30:59;6.93;;;3.08;;
74100;SDS011;62462;52.530;21.682;2023-09-19T22:33:26;3.08;;;2.78;;
74100;SDS011;62462;52.530;21.682;2023-09-19T22:35:54;3.92;;;2.92;;
74100;SDS011;62462;52.530;21.682;2023-09-19T22:38:22;3.17;;;2.88;;
74100;SDS011;62462;52.530;21.682;2023-09-19T22:40:48;3.65;;;3.15;;
74100;SDS011;62462;52.530;21.682;2023-09-19T22:43:20;4.45;;;2.95;;
74100;SDS011;62462;52.530;21.682;2023-09-19T22:45:51;3.05;;;2.80;;
74100;SDS011;62462;52.530;21.682;2023-09-19T22:48:18;4.25;;;2.60;;
74100;SDS011;62462;52.530;21.682;2023-09-19T22:50:49;4.60;;;2.35;;
74100;SDS011;62462;52.530;21.682;2023-09-19T22:53:28;4.68;;;2.42;;
74100;SDS011;62462;52.530;21.682;2023-09-19T22:55:53;3.55;;;2.60;;
74100;SDS011;62462;52.530;21.682;2023-09-19T22:58:19;5.30;;;2.75;;
74100;SDS011;62462;52.530;21.682;2023-09-19T23:00:45;4.95;;;2.28;;
74100;SDS011;62462;52.530;21.682;2023-09-19T23:03:14;3.20;;;2.33;;
74100;SDS011;62462;52.530;21.682;2023-09-19T23:05:40;2.67;;;2.47;;
74100;SDS011;62462;52.530;21.682;2023-09-19T23:08:07;4.78;;;2.90;;
74100;SDS011;62462;52.530;21.682;2023-09-19T23:10:52;4.00;;;2.50;;
74100;SDS011;62462;52.530;21.682;2023-09-19T23:13:18;3.53;;;2.97;;
74100;SDS011;62462;52.530;21.682;2023-09-19T23:15:52;3.47;;;3.15;;
74100;SDS011;62462;52.530;21.682;2023-09-19T23:18:21;4.72;;;3.00;;
74100;SDS011;62462;52.530;21.682;2023-09-19T23:20:47;5.28;;;2.88;;
74100;SDS011;62462;52.530;21.682;2023-09-19T23:23:15;3.60;;;2.40;;
74100;SDS011;62462;52.530;21.682;2023-09-19T23:25:43;3.75;;;2.33;;
74100;SDS011;62462;52.530;21.682;2023-09-19T23:28:14;3.33;;;2.45;;
74100;SDS011;62462;52.530;21.682;2023-09-19T23:30:41;2.72;;;2.53;;
74100;SDS011;62462;52.530;21.682;2023-09-19T23:33:12;2.80;;;2.17;;
74100;SDS011;62462;52.530;21.682;2023-09-19T23:35:40;2.63;;;2.15;;
74100;SDS011;62462;52.530;21.682;2023-09-19T23:38:05;2.60;;;2.20;;
74100;SDS011;62462;52.530;21.682;2023-09-19T23:40:32;3.13;;;2.78;;
74100;SDS011;62462;52.530;21.682;2023-09-19T23:43:01;5.53;;;2.10;;
74100;SDS011;62462;52.530;21.682;2023-09-19T23:45:32;2.40;;;1.67;;
74100;SDS011;62462;52.530;21.682;2023-09-19T23:47:58;2.65;;;2.33;;
74100;SDS011;62462;52.530;21.682;2023-09-19T23:50:24;2.28;;;1.92;;
74100;SDS011;62462;52.530;21.682;2023-09-19T23:52:54;2.05;;;1.60;;
74100;SDS011;62462;52.530;21.682;2023-09-19T23:55:19;1.95;;;1.55;;
74100;SDS011;62462;52.530;21.682;2023-09-19T23:57:49;2.20;;;2.00;;
